Time;durP1;ratioP1;P1;durP2;ratioP2;P2;SDS_P1;SDS_P2;PMS_P1;PMS_P2;Temp;Humidity;BMP_temperature;BMP_pressure;BME280_temperature;BME280_humidity;BME280_pressure;Samples;Min_cycle;Max_cycle;Signal;HPM_P1;HPM_P2
2023/09/20 00:02:14;;;;;;;0.98;0.95;;;13.10;99.90;;;;;;5585214;22;20539;-80
2023/09/20 00:04:42;;;;;;;0.70;0.70;;;13.10;99.90;;;;;;5205984;23;20295;-82
2023/09/20 00:07:09;;;;;;;1.47;1.37;;;13.10;99.90;;;;;;5066373;28;20437;-82
2023/09/20 00:09:38;;;;;;;0.50;0.50;;;13.00;99.90;;;;;;5051306;28;20493;-83
2023/09/20 00:12:06;;;;;;;0.70;0.70;;;13.00;99.90;;;;;;5072367;28;20429;-85
2023/09/20 00:14:33;;;;;;;0.50;0.50;;;13.00;99.90;;;;;;5073367;28;20192;-87
2023/09/20 00:17:00;;;;;;;0.95;0.95;;;12.90;99.90;;;;;;5073925;28;20479;-84
2023/09/20 00:19:28;;;;;;;0.80;0.80;;;12.90;99.90;;;;;;5066507;28;20192;-88
2023/09/20 00:21:56;;;;;;;1.65;1.55;;;12.90;99.90;;;;;;5064456;28;20433;-88
2023/09/20 00:24:23;;;;;;;1.85;1.75;;;12.80;99.90;;;;;;5322053;23;20259;-89
2023/09/20 00:26:50;;;;;;;0.60;0.60;;;12.90;99.90;;;;;;5296443;22;20334;-84
2023/09/20 00:29:16;;;;;;;0.80;0.80;;;12.80;99.90;;;;;;5064379;28;20562;-89
2023/09/20 00:31:43;;;;;;;0.50;0.50;;;12.80;99.90;;;;;;5040579;28;20420;-87
2023/09/20 00:34:10;;;;;;;1.95;1.17;;;12.80;99.90;;;;;;5051705;28;20216;-87
2023/09/20 00:36:38;;;;;;;1.10;1.00;;;12.80;99.90;;;;;;5455411;22;20253;-87
2023/09/20 00:39:06;;;;;;;0.50;0.50;;;12.80;99.90;;;;;;5480184;22;20274;-86
2023/09/20 00:44:09;;;;;;;0.70;0.70;;;12.80;99.90;;;;;;5110660;23;20641;-83
2023/09/20 00:46:38;;;;;;;0.50;0.50;;;12.70;99.90;;;;;;5041983;28;20381;-86
2023/09/20 00:51:40;;;;;;;0.60;0.60;;;12.60;99.90;;;;;;5021706;28;20235;-84
2023/09/20 00:54:07;;;;;;;0.50;0.50;;;12.60;99.90;;;;;;5029069;28;20193;-83
2023/09/20 00:56:34;;;;;;;0.65;0.65;;;12.60;99.90;;;;;;5029362;28;20620;-85
2023/09/20 00:59:06;;;;;;;0.65;0.65;;;12.50;99.90;;;;;;5018979;28;20267;-83
2023/09/20 01:01:34;;;;;;;0.50;0.50;;;12.50;99.90;;;;;;5019461;28;20249;-84
2023/09/20 01:04:05;;;;;;;0.88;0.88;;;12.50;99.90;;;;;;5019312;28;20387;-86
2023/09/20 01:06:34;;;;;;;0.50;0.50;;;12.50;99.90;;;;;;5019222;28;20241;-85
2023/09/20 01:09:01;;;;;;;0.65;0.65;;;12.50;99.90;;;;;;5282010;22;20809;-83
2023/09/20 01:11:27;;;;;;;1.95;1.45;;;12.60;99.90;;;;;;5039177;28;20271;-82
2023/09/20 01:13:56;;;;;;;0.98;0.98;;;12.70;99.90;;;;;;5042064;28;20204;-88
2023/09/20 01:16:24;;;;;;;0.70;0.70;;;12.70;99.90;;;;;;5035803;28;20528;-86
2023/09/20 01:18:52;;;;;;;0.50;0.50;;;12.70;99.90;;;;;;5018860;28;20201;-88
2023/09/20 01:21:19;;;;;;;0.85;0.85;;;12.70;99.90;;;;;;5025102;28;20227;-83
2023/09/20 01:23:49;;;;;;;0.90;0.90;;;12.60;99.90;;;;;;5040137;28;20327;-84
2023/09/20 01:26:16;;;;;;;0.55;0.55;;;12.60;99.90;;;;;;5042515;28;20446;-83
2023/09/20 01:28:43;;;;;;;0.70;0.70;;;12.60;99.90;;;;;;5029977;28;20492;-85
2023/09/20 01:31:11;;;;;;;0.95;0.93;;;12.50;99.90;;;;;;5047290;28;20209;-84
2023/09/20 01:33:38;;;;;;;0.82;0.82;;;12.50;99.90;;;;;;5043209;28;20197;-83
2023/09/20 01:36:05;;;;;;;0.60;0.60;;;12.40;99.90;;;;;;5037791;28;20485;-82
2023/09/20 01:38:34;;;;;;;0.50;0.50;;;12.50;99.90;;;;;;5037322;28;20221;-83
2023/09/20 01:41:03;;;;;;;2.15;1.98;;;12.50;99.90;;;;;;5041120;28;20212;-87
2023/09/20 01:43:30;;;;;;;0.80;0.80;;;12.50;99.90;;;;;;5048532;28;20250;-84
2023/09/20 01:45:58;;;;;;;0.57;0.57;;;12.50;99.90;;;;;;5052165;28;20216;-87
2023/09/20 01:48:28;;;;;;;0.50;0.50;;;12.50;99.90;;;;;;5003695;28;20255;-83
2023/09/20 01:50:55;;;;;;;0.60;0.60;;;12.50;99.90;;;;;;5027947;28;20213;-85
2023/09/20 01:53:24;;;;;;;0.50;0.50;;;12.50;99.90;;;;;;5039091;28;20603;-84
2023/09/20 01:55:53;;;;;;;0.50;0.50;;;12.40;99.90;;;;;;5048796;28;20267;-85
2023/09/20 01:58:23;;;;;;;0.80;0.80;;;12.40;99.90;;;;;;5051577;28;20243;-86
2023/09/20 02:00:50;;;;;;;0.88;0.88;;;12.30;99.90;;;;;;5051902;28;20192;-86
2023/09/20 02:03:18;;;;;;;0.50;0.50;;;12.30;99.90;;;;;;5031555;28;20215;-88
2023/09/20 02:05:47;;;;;;;0.50;0.50;;;12.30;99.90;;;;;;5048387;28;20251;-85
2023/09/20 02:08:16;;;;;;;0.50;0.50;;;12.30;99.90;;;;;;5046332;28;20244;-87
2023/09/20 02:10:44;;;;;;;1.23;1.23;;;12.40;99.90;;;;;;5046287;28;20300;-85
2023/09/20 02:13:11;;;;;;;0.98;0.98;;;12.30;99.90;;;;;;5029370;28;20208;-84
2023/09/20 02:15:41;;;;;;;0.80;0.80;;;12.20;99.90;;;;;;5046565;28;20268;-85
2023/09/20 02:18:09;;;;;;;2.35;2.15;;;12.30;99.90;;;;;;5045446;28;20201;-87
2023/09/20 02:20:37;;;;;;;0.50;0.50;;;12.30;99.90;;;;;;5051158;28;20251;-83
2023/09/20 02:23:08;;;;;;;11.82;2.20;;;12.30;99.90;;;;;;5051555;28;20212;-83
2023/09/20 02:25:35;;;;;;;0.50;0.50;;;12.30;99.90;;;;;;5227997;22;20298;-82
2023/09/20 02:28:04;;;;;;;8.38;1.30;;;12.20;99.90;;;;;;5170365;22;20221;-81
2023/09/20 02:30:37;;;;;;;1.30;1.02;;;12.30;99.90;;;;;;5054176;28;20221;-83
2023/09/20 02:33:06;;;;;;;0.50;0.50;;;12.20;99.90;;;;;;5052969;28;20212;-82
2023/09/20 02:35:34;;;;;;;1.55;1.45;;;12.00;99.90;;;;;;5118672;22;20252;-82
2023/09/20 02:38:05;;;;;;;0.60;0.60;;;12.20;99.90;;;;;;5040894;28;20189;-84
2023/09/20 02:40:35;;;;;;;0.73;0.73;;;12.20;99.90;;;;;;5043903;28;20209;-86
2023/09/20 02:43:07;;;;;;;0.50;0.50;;;12.10;99.90;;;;;;5028582;28;20330;-83
2023/09/20 02:45:39;;;;;;;0.70;0.70;;;12.10;99.90;;;;;;5022882;28;20243;-85
2023/09/20 02:48:08;;;;;;;0.65;0.65;;;12.10;99.90;;;;;;5022042;28;20276;-84
2023/09/20 02:50:35;;;;;;;0.50;0.50;;;12.20;99.90;;;;;;5004603;28;20289;-84
2023/09/20 02:53:06;;;;;;;0.60;0.60;;;12.10;99.90;;;;;;5022014;28;20206;-87
2023/09/20 02:55:34;;;;;;;0.50;0.50;;;12.10;99.90;;;;;;5023173;28;20205;-82
2023/09/20 02:58:01;;;;;;;0.50;0.50;;;12.20;99.90;;;;;;5025136;28;20272;-82
2023/09/20 03:00:31;;;;;;;0.77;0.77;;;12.20;99.90;;;;;;5008917;28;20267;-84
2023/09/20 03:03:08;;;;;;;0.77;0.77;;;12.10;99.90;;;;;;5020436;28;20205;-85
2023/09/20 03:05:37;;;;;;;1.92;1.83;;;12.20;99.90;;;;;;5022797;28;20243;-85
2023/09/20 03:08:11;;;;;;;0.50;0.50;;;12.20;99.90;;;;;;5029710;28;20210;-85
2023/09/20 03:10:46;;;;;;;0.65;0.65;;;12.10;99.90;;;;;;5168270;23;20305;-87
2023/09/20 03:13:18;;;;;;;0.50;0.50;;;12.10;99.90;;;;;;5419280;22;20215;-86
2023/09/20 03:15:45;;;;;;;0.50;0.50;;;12.10;99.90;;;;;;5067106;28;20236;-87
2023/09/20 03:18:13;;;;;;;0.60;0.60;;;12.10;99.90;;;;;;5056471;28;20204;-88
2023/09/20 03:20:43;;;;;;;0.88;0.65;;;12.00;99.90;;;;;;5048975;28;20226;-89
2023/09/20 03:23:13;;;;;;;0.50;0.50;;;12.00;99.90;;;;;;5065607;28;20196;-85
2023/09/20 03:25:43;;;;;;;0.47;0.47;;;12.00;99.90;;;;;;5149856;22;20459;-89
2023/09/20 03:28:12;;;;;;;0.65;0.65;;;11.90;99.90;;;;;;5020219;28;20239;-88
2023/09/20 03:30:40;;;;;;;0.50;0.50;;;12.00;99.90;;;;;;5046852;28;20536;-86
2023/09/20 03:33:10;;;;;;;0.70;0.70;;;12.00;99.90;;;;;;5046769;28;20220;-86
2023/09/20 03:35:39;;;;;;;0.50;0.50;;;11.80;99.90;;;;;;5027737;28;20232;-87
2023/09/20 03:38:08;;;;;;;0.50;0.50;;;11.90;99.90;;;;;;5047435;28;20211;-88
2023/09/20 03:40:41;;;;;;;0.50;0.50;;;11.80;99.90;;;;;;5044003;28;20477;-85
2023/09/20 03:43:08;;;;;;;0.50;0.50;;;11.90;99.90;;;;;;5044381;28;20233;-86
2023/09/20 03:45:37;;;;;;;0.50;0.50;;;11.90;99.90;;;;;;5045161;28;20224;-85
2023/09/20 03:48:06;;;;;;;0.57;0.57;;;11.80;99.90;;;;;;5051396;28;20205;-86
2023/09/20 03:53:15;;;;;;;0.50;0.50;;;11.80;99.90;;;;;;5302675;22;20228;-84
2023/09/20 04:01:02;;;;;;;0.70;0.70;;;11.80;99.90;;;;;;5388888;22;20212;-83
2023/09/20 04:08:46;;;;;;;0.80;0.80;;;11.70;99.90;;;;;;5527833;22;20258;-85
2023/09/20 04:11:14;;;;;;;1.13;1.08;;;11.70;99.90;;;;;;5719084;22;20227;-83
2023/09/20 04:16:16;;;;;;;1.35;1.25;;;11.70;99.90;;;;;;5521245;23;20464;-84
2023/09/20 04:18:44;;;;;;;0.75;0.75;;;11.70;99.90;;;;;;5314962;22;20218;-84
2023/09/20 04:21:11;;;;;;;0.50;0.50;;;11.70;99.90;;;;;;5716047;23;20239;-84
2023/09/20 04:23:39;;;;;;;0.50;0.50;;;11.70;99.90;;;;;;5215788;22;20224;-83
2023/09/20 04:28:42;;;;;;;0.40;0.40;;;11.70;99.90;;;;;;5311340;22;20237;-84
2023/09/20 04:31:28;;;;;;;1.08;1.08;;;12.00;99.90;;;;;;5208191;23;22004;-86
2023/09/20 04:36:31;;;;;;;0.80;0.80;;;11.80;99.90;;;;;;5784100;22;21263;-85
2023/09/20 04:39:00;;;;;;;0.85;0.85;;;11.80;99.90;;;;;;5371301;22;20506;-86
2023/09/20 04:41:27;;;;;;;0.65;0.65;;;11.90;99.90;;;;;;5486329;23;20276;-78
2023/09/20 04:54:37;;;;;;;5.97;2.00;;;12.20;99.90;;;;;;6065935;23;20383;-85
2023/09/20 04:59:40;;;;;;;0.80;0.80;;;12.10;99.90;;;;;;5717179;22;20224;-85
2023/09/20 05:02:10;;;;;;;0.82;0.82;;;12.20;99.90;;;;;;5855719;22;20216;-85
2023/09/20 05:04:38;;;;;;;0.85;0.85;;;12.20;99.90;;;;;;5770435;22;20219;-86
2023/09/20 05:07:09;;;;;;;0.70;0.70;;;12.30;99.90;;;;;;6021815;22;20196;-85
2023/09/20 05:17:34;;;;;;;0.60;0.60;;;12.90;99.90;;;;;;5874622;22;21855;-81
2023/09/20 05:22:37;;;;;;;0.70;0.70;;;13.10;99.90;;;;;;5415399;22;20480;-87
2023/09/20 05:25:07;;;;;;;2.45;2.15;;;13.40;99.90;;;;;;5070930;28;20204;-85
2023/09/20 05:27:34;;;;;;;1.10;1.00;;;13.40;99.90;;;;;;5191591;23;20531;-86
2023/09/20 05:32:35;;;;;;;0.70;0.70;;;13.70;99.90;;;;;;4964624;28;20207;-87
2023/09/20 05:35:03;;;;;;;0.67;0.67;;;13.80;99.90;;;;;;5750666;23;20735;-86
2023/09/20 05:37:30;;;;;;;0.90;0.90;;;14.00;99.90;;;;;;5395965;22;20982;-88
2023/09/20 05:40:00;;;;;;;0.60;0.60;;;14.10;99.90;;;;;;5187019;23;20632;-86
2023/09/20 05:45:10;;;;;;;0.70;0.70;;;14.70;99.90;;;;;;5852956;22;20460;-87
2023/09/20 05:47:41;;;;;;;0.70;0.70;;;14.90;99.90;;;;;;5151190;23;20531;-84
2023/09/20 05:52:53;;;;;;;0.60;0.60;;;15.20;99.90;;;;;;5707681;22;20520;-83
2023/09/20 06:00:38;;;;;;;0.60;0.60;;;15.90;99.90;;;;;;5426735;22;20549;-84
2023/09/20 06:05:48;;;;;;;0.60;0.60;;;16.10;99.90;;;;;;5330308;23;21748;-84
2023/09/20 06:08:27;;;;;;;0.63;0.63;;;16.00;99.90;;;;;;5170480;23;20725;-85
2023/09/20 06:10:55;;;;;;;0.60;0.60;;;16.00;99.90;;;;;;5306328;23;20576;-87
2023/09/20 06:15:57;;;;;;;0.80;0.80;;;16.20;99.90;;;;;;5229256;23;20463;-85
2023/09/20 06:18:26;;;;;;;0.50;0.50;;;16.40;99.90;;;;;;5632351;22;20501;-85
2023/09/20 06:20:55;;;;;;;1.93;1.83;;;16.60;99.90;;;;;;5383960;23;20502;-86
2023/09/20 06:23:25;;;;;;;0.70;0.70;;;16.70;99.90;;;;;;5198342;22;20559;-86
2023/09/20 06:25:53;;;;;;;0.70;0.70;;;16.80;99.90;;;;;;5835939;23;21401;-86
2023/09/20 06:28:24;;;;;;;0.60;0.60;;;16.90;99.90;;;;;;5050071;28;20486;-88
2023/09/20 06:33:28;;;;;;;0.50;0.50;;;17.20;99.90;;;;;;5353465;23;20475;-85
2023/09/20 06:35:57;;;;;;;0.70;0.70;;;17.30;99.90;;;;;;5384217;22;20509;-85
2023/09/20 06:40:59;;;;;;;0.60;0.60;;;17.70;99.90;;;;;;5263386;22;20525;-86
2023/09/20 06:43:27;;;;;;;0.60;0.60;;;17.90;99.90;;;;;;5508561;23;20486;-86
2023/09/20 06:45:56;;;;;;;0.60;0.60;;;18.30;99.90;;;;;;5420391;22;20504;-85
2023/09/20 06:48:23;;;;;;;0.70;0.70;;;19.30;99.90;;;;;;5319289;22;20487;-85
2023/09/20 06:50:54;;;;;;;0.80;0.80;;;20.20;99.90;;;;;;5439740;22;20472;-84
2023/09/20 06:53:25;;;;;;;0.70;0.70;;;21.50;99.90;;;;;;5017503;28;20463;-83
2023/09/20 06:55:54;;;;;;;0.70;0.70;;;22.50;99.90;;;;;;5029092;28;20448;-86
2023/09/20 06:58:22;;;;;;;0.80;0.80;;;23.40;99.90;;;;;;5416209;22;20546;-86
2023/09/20 07:00:50;;;;;;;3.07;1.83;;;23.90;99.90;;;;;;5187501;22;20475;-85
2023/09/20 07:03:18;;;;;;;1.00;1.00;;;24.20;99.90;;;;;;5071286;28;20445;-83
2023/09/20 07:11:06;;;;;;;1.00;1.00;;;24.90;98.60;;;;;;5109006;22;20486;-85
2023/09/20 07:13:35;;;;;;;2.00;1.90;;;25.70;97.90;;;;;;5231605;22;20810;-89
2023/09/20 07:16:05;;;;;;;2.20;1.53;;;26.10;96.30;;;;;;5148642;22;20550;-88
2023/09/20 07:18:33;;;;;;;1.03;1.03;;;26.20;95.20;;;;;;5025359;28;20452;-89
2023/09/20 07:21:00;;;;;;;1.00;1.00;;;26.20;95.10;;;;;;5421214;23;20497;-85
2023/09/20 07:23:29;;;;;;;3.40;1.83;;;26.40;93.40;;;;;;5138220;23;20556;-84
2023/09/20 07:25:59;;;;;;;0.90;0.90;;;27.10;93.00;;;;;;5386555;23;20688;-84
2023/09/20 07:28:26;;;;;;;1.10;1.10;;;27.70;92.60;;;;;;5048079;28;21072;-83
2023/09/20 07:30:55;;;;;;;1.27;1.27;;;27.80;90.40;;;;;;5068659;28;20521;-89
2023/09/20 07:36:00;;;;;;;1.10;1.10;;;28.30;87.70;;;;;;5154098;22;20501;-86
2023/09/20 07:38:29;;;;;;;1.00;1.00;;;28.70;86.60;;;;;;5049425;28;20782;-84
2023/09/20 07:43:29;;;;;;;1.10;1.10;;;29.10;82.70;;;;;;5031452;28;20534;-84
2023/09/20 07:46:05;;;;;;;2.03;1.93;;;29.10;80.80;;;;;;5044107;28;20448;-87
2023/09/20 07:48:33;;;;;;;1.30;1.30;;;28.90;81.20;;;;;;5285088;22;20451;-84
2023/09/20 07:51:04;;;;;;;0.97;0.97;;;29.50;77.90;;;;;;5061533;28;20891;-89
2023/09/20 07:53:31;;;;;;;2.50;1.20;;;29.10;79.40;;;;;;5047798;28;21057;-86
2023/09/20 07:58:36;;;;;;;0.90;0.90;;;29.30;79.30;;;;;;5005878;28;20469;-87
2023/09/20 08:01:21;;;;;;;0.80;0.80;;;29.60;76.00;;;;;;5002479;28;20517;-82
2023/09/20 08:03:52;;;;;;;0.80;0.80;;;29.60;76.20;;;;;;5353166;22;20598;-85
2023/09/20 08:09:04;;;;;;;1.47;1.37;;;30.70;72.30;;;;;;5061689;23;20494;-86
2023/09/20 08:11:32;;;;;;;0.90;0.90;;;29.90;72.40;;;;;;5318790;23;20501;-85
2023/09/20 08:14:03;;;;;;;1.57;1.47;;;30.40;71.00;;;;;;5132347;23;20940;-87
2023/09/20 08:16:33;;;;;;;2.17;2.07;;;30.40;70.10;;;;;;5111036;22;20847;-85
2023/09/20 08:21:51;;;;;;;1.20;1.20;;;30.30;69.60;;;;;;5060764;28;20452;-88
2023/09/20 09:00:46;;;;;;;1.10;1.10;;;29.00;70.60;;;;;;5063859;28;20529;-87
2023/09/20 09:03:14;;;;;;;0.90;0.90;;;29.30;69.40;;;;;;5065668;28;20510;-88
2023/09/20 09:05:42;;;;;;;1.00;1.00;;;29.80;68.00;;;;;;5196745;23;20443;-85
2023/09/20 09:08:10;;;;;;;1.00;1.00;;;30.20;67.50;;;;;;5141425;22;20496;-88
2023/09/20 09:10:38;;;;;;;1.67;1.57;;;29.70;67.80;;;;;;5179903;23;20898;-87
2023/09/20 09:13:05;;;;;;;1.97;1.87;;;29.50;68.40;;;;;;5113582;23;21337;-87
2023/09/20 09:15:32;;;;;;;1.13;1.10;;;29.50;68.20;;;;;;5038263;28;20456;-86
2023/09/20 09:20:42;;;;;;;1.00;1.00;;;29.10;67.70;;;;;;5064410;23;20486;-89
2023/09/20 09:23:13;;;;;;;1.23;1.13;;;28.50;69.20;;;;;;5212567;23;20487;-89
2023/09/20 09:25:41;;;;;;;1.10;1.10;;;28.00;70.40;;;;;;5303317;23;20438;-85
2023/09/20 09:28:09;;;;;;;0.90;0.90;;;27.80;71.30;;;;;;5663960;23;20525;-85
2023/09/20 09:30:36;;;;;;;1.40;1.33;;;27.80;71.60;;;;;;5046615;28;20561;-87
2023/09/20 09:33:03;;;;;;;0.90;0.90;;;27.00;72.10;;;;;;5052619;28;20466;-87
2023/09/20 09:35:35;;;;;;;2.63;2.43;;;26.60;73.10;;;;;;5058133;28;20427;-85
2023/09/20 09:38:20;;;;;;;0.90;0.90;;;26.20;75.60;;;;;;5631365;22;20482;-87
2023/09/20 09:40:55;;;;;;;0.90;0.90;;;26.20;73.90;;;;;;5213722;23;20463;-87
2023/09/20 09:43:27;;;;;;;1.00;1.00;;;25.90;75.90;;;;;;5071295;28;20416;-87
2023/09/20 09:46:03;;;;;;;1.00;1.00;;;25.70;76.80;;;;;;5670890;23;20714;-87
2023/09/20 09:48:32;;;;;;;0.90;0.90;;;26.10;75.50;;;;;;5510613;22;20503;-84
2023/09/20 09:56:29;;;;;;;0.90;0.90;;;26.00;75.80;;;;;;5245634;23;20469;-86
2023/09/20 09:58:56;;;;;;;1.20;1.20;;;25.90;75.50;;;;;;5191452;22;20479;-85
2023/09/20 10:04:05;;;;;;;0.90;0.90;;;26.00;76.50;;;;;;5743878;22;1714634;-87
2023/09/20 10:06:50;;;;;;;0.90;0.90;;;25.90;75.90;;;;;;5751333;22;20719;31
2023/09/20 10:09:24;;;;;;;3.50;1.20;;;26.10;76.50;;;;;;4994825;28;20528;-86
2023/09/20 10:22:31;;;;;;;0.90;0.90;;;26.00;78.70;;;;;;6175069;22;1500693;-86
2023/09/20 10:25:00;;;;;;;0.80;0.80;;;26.00;75.50;;;;;;6272799;22;20699;-86
2023/09/20 10:27:34;;;;;;;0.90;0.90;;;25.80;75.80;;;;;;6303789;22;20442;-88
2023/09/20 10:30:10;;;;;;;1.00;1.00;;;25.80;75.60;;;;;;6298659;22;20457;-88
2023/09/20 10:32:45;;;;;;;1.00;1.00;;;25.70;75.40;;;;;;6301904;22;20366;-88
2023/09/20 10:38:11;;;;;;;0.90;0.90;;;25.70;74.70;;;;;;6257201;22;20444;-84
2023/09/20 10:41:00;;;;;;;1.20;1.10;;;25.70;76.00;;;;;;6305634;22;20378;-84
2023/09/20 10:46:22;;;;;;;1.00;1.00;;;25.80;76.90;;;;;;6298110;22;20514;-83
2023/09/20 10:51:44;;;;;;;0.90;0.90;;;25.70;77.40;;;;;;6268594;22;20435;-85
2023/09/20 10:57:02;;;;;;;1.07;1.07;;;25.80;77.30;;;;;;6265105;22;20453;-85
2023/09/20 10:59:32;;;;;;;0.90;0.90;;;25.80;76.90;;;;;;6298998;22;20466;-85
2023/09/20 11:02:16;;;;;;;0.90;0.90;;;25.80;76.90;;;;;;6305735;22;20370;-88
2023/09/20 11:04:46;;;;;;;2.03;1.93;;;25.70;76.90;;;;;;6225163;22;20439;-86
2023/09/20 11:07:14;;;;;;;0.70;0.70;;;25.80;77.50;;;;;;6295571;22;20462;-88
2023/09/20 11:09:47;;;;;;;1.20;1.10;;;25.80;77.60;;;;;;6277501;22;20425;-85
2023/09/20 11:12:15;;;;;;;1.00;1.00;;;25.80;78.10;;;;;;6303605;22;20399;-86
2023/09/20 11:14:44;;;;;;;0.80;0.80;;;25.90;77.90;;;;;;6231800;22;20467;-87
2023/09/20 11:19:48;;;;;;;0.70;0.70;;;26.00;76.60;;;;;;6303232;22;20482;-87
2023/09/20 11:27:43;;;;;;;0.80;0.80;;;25.60;76.20;;;;;;6272440;22;20439;-87
2023/09/20 11:32:49;;;;;;;1.10;1.10;;;25.30;77.30;;;;;;6248187;22;20406;-88
2023/09/20 11:35:33;;;;;;;0.70;0.70;;;25.30;78.20;;;;;;6293964;22;20375;-88
2023/09/20 11:38:06;;;;;;;1.47;1.37;;;25.20;78.90;;;;;;6258223;22;20837;-88
2023/09/20 11:40:47;;;;;;;0.80;0.80;;;25.20;77.70;;;;;;6234601;22;20506;-87
2023/09/20 11:43:20;;;;;;;1.00;1.00;;;25.20;77.50;;;;;;6268603;22;20442;-86
2023/09/20 11:45:49;;;;;;;1.00;1.00;;;25.00;77.40;;;;;;6292014;22;20560;-87
2023/09/20 11:48:28;;;;;;;0.80;0.80;;;25.00;78.90;;;;;;6247013;22;20407;-87
2023/09/20 11:53:44;;;;;;;0.80;0.80;;;25.20;78.30;;;;;;6291670;22;20772;-86
2023/09/20 11:56:14;;;;;;;1.00;1.00;;;25.20;76.90;;;;;;6254538;22;20447;-84
2023/09/20 11:58:45;;;;;;;0.80;0.80;;;25.40;77.90;;;;;;6299653;22;20401;-88
2023/09/20 12:04:03;;;;;;;0.90;0.90;;;25.40;77.40;;;;;;6282035;22;20427;-89
2023/09/20 12:09:06;;;;;;;1.00;1.00;;;25.60;77.70;;;;;;6271428;22;20411;-82
2023/09/20 12:16:52;;;;;;;0.90;0.90;;;25.90;76.30;;;;;;6225138;22;20460;-90
2023/09/20 12:22:01;;;;;;;1.83;1.33;;;25.70;76.40;;;;;;6201116;22;20396;-85
2023/09/20 12:24:28;;;;;;;0.90;0.90;;;25.70;76.20;;;;;;6201911;22;20453;-89
2023/09/20 12:27:00;;;;;;;0.80;0.80;;;25.90;74.70;;;;;;6200551;23;20754;-90
2023/09/20 12:29:28;;;;;;;1.10;1.10;;;25.70;75.50;;;;;;6200920;23;20369;-88
2023/09/20 12:39:57;;;;;;;1.60;1.50;;;25.60;74.50;;;;;;6201227;22;20425;-90
2023/09/20 12:42:27;;;;;;;0.97;0.97;;;25.70;74.40;;;;;;6232101;22;20406;-87
2023/09/20 12:47:29;;;;;;;0.80;0.80;;;25.60;74.20;;;;;;6240587;22;20406;-86
2023/09/20 12:49:57;;;;;;;0.90;0.90;;;25.60;75.70;;;;;;6284081;22;20426;-88
2023/09/20 12:55:05;;;;;;;1.07;1.07;;;25.50;75.20;;;;;;6197867;22;20950;-87
2023/09/20 13:00:16;;;;;;;0.80;0.80;;;25.50;75.00;;;;;;6231714;22;20406;-87
2023/09/20 13:03:08;;;;;;;0.80;0.80;;;25.50;75.20;;;;;;6265476;22;20405;-87
2023/09/20 13:08:24;;;;;;;1.23;1.20;;;25.50;74.60;;;;;;6210733;22;21626;-87
2023/09/20 13:10:57;;;;;;;0.80;0.80;;;25.60;75.20;;;;;;6272261;22;20420;-90
2023/09/20 13:13:28;;;;;;;0.87;0.87;;;25.40;74.80;;;;;;6296367;22;20415;-88
2023/09/20 13:18:33;;;;;;;0.80;0.80;;;25.40;74.50;;;;;;6188867;22;21711;-89
2023/09/20 13:21:05;;;;;;;0.70;0.70;;;25.40;74.50;;;;;;6295714;22;20387;-86
2023/09/20 13:23:32;;;;;;;1.97;1.47;;;25.40;74.30;;;;;;6244606;22;20974;-86
2023/09/20 13:28:41;;;;;;;0.90;0.90;;;25.50;75.90;;;;;;6235199;22;20464;-87
2023/09/20 13:33:41;;;;;;;0.70;0.70;;;25.50;74.90;;;;;;6209268;22;20462;-88
2023/09/20 13:36:09;;;;;;;0.70;0.70;;;25.70;75.20;;;;;;6203799;22;20448;-84
2023/09/20 13:41:13;;;;;;;0.70;0.70;;;25.50;75.50;;;;;;6268020;22;20693;-86
2023/09/20 13:43:42;;;;;;;1.00;1.00;;;25.40;75.60;;;;;;6250208;22;20468;-87
2023/09/20 13:46:15;;;;;;;0.70;0.70;;;25.30;76.50;;;;;;6244306;22;20441;-88
2023/09/20 13:59:30;;;;;;;0.70;0.70;;;25.50;75.70;;;;;;6221581;22;21722;-85
2023/09/20 14:02:00;;;;;;;1.10;1.00;;;25.50;75.20;;;;;;6217214;22;20474;-86
2023/09/20 14:12:41;;;;;;;0.80;0.80;;;25.30;74.90;;;;;;6218275;22;20402;-87
2023/09/20 14:25:49;;;;;;;2.00;1.90;;;24.80;75.60;;;;;;6295740;22;20477;-87
2023/09/20 14:28:19;;;;;;;1.10;1.10;;;24.80;75.10;;;;;;6235158;22;20452;-85
2023/09/20 14:30:49;;;;;;;1.10;1.10;;;24.70;74.60;;;;;;6300100;22;20394;-84
2023/09/20 14:35:59;;;;;;;1.17;1.07;;;24.50;75.40;;;;;;6209326;22;20433;-85
2023/09/20 14:38:27;;;;;;;0.90;0.90;;;24.40;76.00;;;;;;6292637;22;20420;-86
2023/09/20 14:40:54;;;;;;;0.80;0.80;;;24.30;76.40;;;;;;6262529;22;22019;-87
2023/09/20 14:45:58;;;;;;;0.80;0.80;;;24.30;76.90;;;;;;6242848;22;20758;-87
2023/09/20 14:48:25;;;;;;;1.30;1.20;;;24.40;76.90;;;;;;6236548;22;20431;-88
2023/09/20 14:53:28;;;;;;;1.33;1.23;;;24.40;78.40;;;;;;6241316;22;20436;-86
2023/09/20 14:55:57;;;;;;;1.10;1.10;;;24.40;77.80;;;;;;6290836;22;20386;-86
2023/09/20 15:01:22;;;;;;;1.10;1.10;;;24.40;78.50;;;;;;6197956;22;20467;-86
2023/09/20 15:03:58;;;;;;;1.40;1.33;;;24.40;78.70;;;;;;6212583;22;20441;-88
2023/09/20 15:06:28;;;;;;;0.90;0.90;;;24.30;79.40;;;;;;6292983;22;20442;-86
2023/09/20 15:09:01;;;;;;;0.70;0.70;;;24.30;79.70;;;;;;6295431;22;20380;-84
2023/09/20 15:11:47;;;;;;;0.80;0.80;;;24.10;80.20;;;;;;6254304;22;20426;-87
2023/09/20 15:14:24;;;;;;;1.10;1.10;;;24.10;80.00;;;;;;6211796;22;20451;-87
2023/09/20 15:19:32;;;;;;;1.37;1.27;;;24.00;80.00;;;;;;6235282;22;20422;-85
2023/09/20 15:21:59;;;;;;;0.70;0.70;;;24.10;80.00;;;;;;6215201;22;20461;-86
2023/09/20 15:29:44;;;;;;;0.80;0.80;;;24.00;79.80;;;;;;6214861;22;20431;-87
2023/09/20 15:32:19;;;;;;;0.73;0.73;;;24.00;79.10;;;;;;6230865;22;20426;-81
2023/09/20 15:37:29;;;;;;;1.07;1.07;;;23.90;79.20;;;;;;6271290;22;20435;-87
2023/09/20 15:42:45;;;;;;;1.20;1.10;;;23.90;79.50;;;;;;6210069;22;20378;-84
2023/09/20 15:47:49;;;;;;;0.80;0.80;;;23.80;80.70;;;;;;6258373;22;21851;-83
2023/09/20 15:50:25;;;;;;;1.23;1.23;;;23.60;80.70;;;;;;6246232;22;20477;-83
2023/09/20 15:52:54;;;;;;;2.00;1.90;;;23.70;82.20;;;;;;6272796;22;20437;-84
2023/09/20 15:55:21;;;;;;;1.23;1.13;;;23.60;83.10;;;;;;6303908;22;20367;-83
2023/09/20 15:57:48;;;;;;;0.80;0.80;;;23.40;83.60;;;;;;6276132;22;20370;-83
2023/09/20 16:00:17;;;;;;;1.10;1.10;;;23.40;85.10;;;;;;6274841;22;20424;-82
2023/09/20 16:02:44;;;;;;;0.73;0.73;;;23.30;84.20;;;;;;6273046;22;20412;-82
2023/09/20 16:05:13;;;;;;;0.83;0.83;;;23.20;85.20;;;;;;6303075;22;20384;-83
2023/09/20 16:07:42;;;;;;;1.07;1.07;;;23.30;86.00;;;;;;6304355;22;20409;-83
2023/09/20 16:10:12;;;;;;;1.53;1.43;;;23.00;86.10;;;;;;6295112;22;20450;-86
2023/09/20 16:12:42;;;;;;;1.97;1.80;;;23.00;86.80;;;;;;6302088;22;20421;-85
2023/09/20 16:15:13;;;;;;;1.23;1.23;;;22.70;87.90;;;;;;6297790;22;20367;-87
2023/09/20 16:17:42;;;;;;;4.23;1.37;;;22.80;87.90;;;;;;6260738;22;20363;-85
2023/09/20 16:20:13;;;;;;;0.80;0.80;;;22.80;88.50;;;;;;6287750;22;20683;-86
2023/09/20 16:22:44;;;;;;;0.70;0.70;;;22.70;88.70;;;;;;6287176;22;20415;-86
2023/09/20 16:25:12;;;;;;;0.73;0.73;;;22.50;89.70;;;;;;6244049;22;20795;-86
2023/09/20 16:27:39;;;;;;;0.90;0.90;;;22.40;89.90;;;;;;6287052;22;20400;-88
2023/09/20 16:30:08;;;;;;;0.70;0.70;;;22.30;90.10;;;;;;6285313;22;20378;-85
2023/09/20 16:32:38;;;;;;;0.70;0.70;;;22.20;90.30;;;;;;6282484;22;20462;-87
2023/09/20 16:35:10;;;;;;;0.83;0.83;;;22.20;90.40;;;;;;6286753;22;20457;-86
2023/09/20 16:37:37;;;;;;;1.10;1.10;;;22.20;90.90;;;;;;6287943;22;20371;-85
2023/09/20 16:40:07;;;;;;;0.70;0.70;;;22.00;91.00;;;;;;6288718;22;20363;-84
2023/09/20 16:42:34;;;;;;;0.90;0.90;;;22.00;90.80;;;;;;6287192;22;20400;-85
2023/09/20 16:45:02;;;;;;;0.90;0.90;;;21.90;91.40;;;;;;6285954;22;20375;-84
2023/09/20 16:47:29;;;;;;;0.70;0.70;;;21.80;91.50;;;;;;6256229;22;20371;-86
2023/09/20 16:49:56;;;;;;;1.10;1.10;;;21.80;91.70;;;;;;6285200;22;20375;-84
2023/09/20 16:52:24;;;;;;;0.77;0.77;;;21.60;92.20;;;;;;6299341;22;20463;-82
2023/09/20 16:54:53;;;;;;;1.00;1.00;;;21.50;92.00;;;;;;6292460;22;20382;-88
2023/09/20 16:57:22;;;;;;;0.70;0.70;;;21.40;92.40;;;;;;6284398;22;20392;-84
2023/09/20 16:59:49;;;;;;;0.70;0.70;;;21.40;92.60;;;;;;6287116;22;20402;-84
2023/09/20 17:02:17;;;;;;;0.87;0.87;;;21.20;93.00;;;;;;6285525;22;20409;-84
2023/09/20 17:04:44;;;;;;;0.60;0.60;;;21.20;93.50;;;;;;6286180;22;20375;-85
2023/09/20 17:07:11;;;;;;;1.57;1.30;;;21.00;93.60;;;;;;6287936;22;20629;-86
2023/09/20 17:09:38;;;;;;;1.57;1.47;;;20.90;94.10;;;;;;6285989;22;20432;-84
2023/09/20 17:12:07;;;;;;;0.60;0.60;;;20.80;94.50;;;;;;6291531;22;20574;-85
2023/09/20 17:14:36;;;;;;;0.60;0.60;;;20.70;94.80;;;;;;6302305;22;20484;-81
2023/09/20 17:17:04;;;;;;;0.80;0.80;;;20.60;95.10;;;;;;6302154;22;20376;-84
2023/09/20 17:19:32;;;;;;;0.80;0.80;;;20.50;95.70;;;;;;6299396;22;20367;-82
2023/09/20 17:22:02;;;;;;;1.93;1.83;;;20.40;96.50;;;;;;6286476;22;20751;-86
2023/09/20 17:24:30;;;;;;;2.40;2.20;;;20.30;97.50;;;;;;6282554;22;20459;-85
2023/09/20 17:26:57;;;;;;;0.90;0.90;;;20.20;97.60;;;;;;6281073;22;20407;-84
2023/09/20 17:29:24;;;;;;;0.70;0.70;;;20.20;97.30;;;;;;6282675;22;20374;-84
2023/09/20 17:31:51;;;;;;;1.73;1.63;;;20.20;97.50;;;;;;6281900;22;20787;-84